sensor_id;sensor_type;location;lat;lon;timestamp;P1;durP1;ratioP1;P2;durP2;ratioP2
18239;SDS011;9244;50.828;4.718;2023-12-04T00:00:38;10.00;;;5.23;;
18239;SDS011;9244;50.828;4.718;2023-12-04T00:03:04;7.50;;;4.43;;
18239;SDS011;9244;50.828;4.718;2023-12-04T00:05:31;5.37;;;2.90;;
18239;SDS011;9244;50.828;4.718;2023-12-04T00:07:59;8.80;;;3.50;;
18239;SDS011;9244;50.828;4.718;2023-12-04T00:10:27;3.50;;;2.73;;
18239;SDS011;9244;50.828;4.718;2023-12-04T00:12:57;6.90;;;4.43;;
18239;SDS011;9244;50.828;4.718;2023-12-04T00:15:23;7.37;;;4.80;;
18239;SDS011;9244;50.828;4.718;2023-12-04T00:17:49;4.77;;;3.03;;
18239;SDS011;9244;50.828;4.718;2023-12-04T00:20:14;6.57;;;4.57;;
18239;SDS011;9244;50.828;4.718;2023-12-04T00:22:42;5.17;;;3.40;;
18239;SDS011;9244;50.828;4.718;2023-12-04T00:25:10;7.17;;;4.47;;
18239;SDS011;9244;50.828;4.718;2023-12-04T00:27:38;6.63;;;3.67;;
18239;SDS011;9244;50.828;4.718;2023-12-04T00:30:06;4.77;;;3.43;;
18239;SDS011;9244;50.828;4.718;2023-12-04T00:32:35;5.37;;;3.23;;
18239;SDS011;9244;50.828;4.718;2023-12-04T00:35:00;6.27;;;4.23;;
18239;SDS011;9244;50.828;4.718;2023-12-04T00:37:26;5.80;;;3.40;;
18239;SDS011;9244;50.828;4.718;2023-12-04T00:39:52;8.13;;;4.87;;
18239;SDS011;9244;50.828;4.718;2023-12-04T00:42:18;5.27;;;3.47;;
18239;SDS011;9244;50.828;4.718;2023-12-04T00:44:44;6.87;;;3.97;;
18239;SDS011;9244;50.828;4.718;2023-12-04T00:47:09;8.47;;;5.23;;
18239;SDS011;9244;50.828;4.718;2023-12-04T00:49:37;6.73;;;4.23;;
18239;SDS011;9244;50.828;4.718;2023-12-04T00:52:03;4.83;;;3.50;;
18239;SDS011;9244;50.828;4.718;2023-12-04T00:54:31;4.10;;;2.70;;
18239;SDS011;9244;50.828;4.718;2023-12-04T00:56:59;8.10;;;4.20;;
18239;SDS011;9244;50.828;4.718;2023-12-04T00:59:29;5.43;;;3.73;;
18239;SDS011;9244;50.828;4.718;2023-12-04T01:01:55;6.47;;;4.93;;
18239;SDS011;9244;50.828;4.718;2023-12-04T01:04:23;8.63;;;4.70;;
18239;SDS011;9244;50.828;4.718;2023-12-04T01:06:48;6.80;;;4.30;;
18239;SDS011;9244;50.828;4.718;2023-12-04T01:09:14;7.33;;;4.37;;
18239;SDS011;9244;50.828;4.718;2023-12-04T01:11:39;6.03;;;4.27;;
18239;SDS011;9244;50.828;4.718;2023-12-04T01:14:05;8.63;;;5.33;;
18239;SDS011;9244;50.828;4.718;2023-12-04T01:16:31;4.00;;;2.93;;
18239;SDS011;9244;50.828;4.718;2023-12-04T01:18:56;8.03;;;4.70;;
18239;SDS011;9244;50.828;4.718;2023-12-04T01:21:22;7.10;;;4.87;;
18239;SDS011;9244;50.828;4.718;2023-12-04T01:23:47;6.97;;;4.37;;
18239;SDS011;9244;50.828;4.718;2023-12-04T01:26:13;6.83;;;4.23;;
18239;SDS011;9244;50.828;4.718;2023-12-04T01:28:39;7.57;;;4.90;;
18239;SDS011;9244;50.828;4.718;2023-12-04T01:31:07;7.03;;;4.83;;
18239;SDS011;9244;50.828;4.718;2023-12-04T01:33:35;5.23;;;3.40;;
18239;SDS011;9244;50.828;4.718;2023-12-04T01:36:01;7.23;;;4.70;;
18239;SDS011;9244;50.828;4.718;2023-12-04T01:38:28;4.10;;;2.67;;
18239;SDS011;9244;50.828;4.718;2023-12-04T01:40:54;6.27;;;4.47;;
18239;SDS011;9244;50.828;4.718;2023-12-04T01:43:19;6.17;;;3.87;;
18239;SDS011;9244;50.828;4.718;2023-12-04T01:45:45;7.60;;;4.60;;
18239;SDS011;9244;50.828;4.718;2023-12-04T01:48:13;6.33;;;4.00;;
18239;SDS011;9244;50.828;4.718;2023-12-04T01:50:42;6.13;;;4.03;;
18239;SDS011;9244;50.828;4.718;2023-12-04T01:53:07;6.90;;;4.27;;
18239;SDS011;9244;50.828;4.718;2023-12-04T01:55:33;6.87;;;3.60;;
18239;SDS011;9244;50.828;4.718;2023-12-04T01:58:00;7.67;;;4.70;;
18239;SDS011;9244;50.828;4.718;2023-12-04T02:00:28;6.60;;;4.23;;
18239;SDS011;9244;50.828;4.718;2023-12-04T02:02:55;6.70;;;5.10;;
18239;SDS011;9244;50.828;4.718;2023-12-04T02:05:26;6.03;;;3.60;;
18239;SDS011;9244;50.828;4.718;2023-12-04T02:07:54;7.53;;;4.70;;
18239;SDS011;9244;50.828;4.718;2023-12-04T02:10:21;5.93;;;3.57;;
18239;SDS011;9244;50.828;4.718;2023-12-04T02:12:47;9.10;;;4.70;;
18239;SDS011;9244;50.828;4.718;2023-12-04T02:15:13;6.90;;;4.20;;
18239;SDS011;9244;50.828;4.718;2023-12-04T02:17:42;7.83;;;5.07;;
18239;SDS011;9244;50.828;4.718;2023-12-04T02:20:08;5.07;;;3.17;;
18239;SDS011;9244;50.828;4.718;2023-12-04T02:22:34;8.57;;;5.03;;
18239;SDS011;9244;50.828;4.718;2023-12-04T02:25:02;7.77;;;5.57;;
18239;SDS011;9244;50.828;4.718;2023-12-04T02:27:36;4.07;;;2.80;;
18239;SDS011;9244;50.828;4.718;2023-12-04T02:30:10;7.17;;;4.20;;
18239;SDS011;9244;50.828;4.718;2023-12-04T02:32:38;7.00;;;4.27;;
18239;SDS011;9244;50.828;4.718;2023-12-04T02:35:12;7.63;;;4.27;;
18239;SDS011;9244;50.828;4.718;2023-12-04T02:37:43;8.37;;;5.63;;
18239;SDS011;9244;50.828;4.718;2023-12-04T02:40:10;8.77;;;5.73;;
18239;SDS011;9244;50.828;4.718;2023-12-04T02:42:37;7.57;;;4.57;;
18239;SDS011;9244;50.828;4.718;2023-12-04T02:45:02;5.77;;;3.97;;
18239;SDS011;9244;50.828;4.718;2023-12-04T02:47:31;6.80;;;4.50;;
18239;SDS011;9244;50.828;4.718;2023-12-04T02:49:56;7.60;;;5.03;;
18239;SDS011;9244;50.828;4.718;2023-12-04T02:52:22;7.80;;;5.27;;
18239;SDS011;9244;50.828;4.718;2023-12-04T02:54:48;6.63;;;4.53;;
18239;SDS011;9244;50.828;4.718;2023-12-04T02:57:13;7.50;;;4.80;;
18239;SDS011;9244;50.828;4.718;2023-12-04T02:59:39;6.90;;;4.77;;
18239;SDS011;9244;50.828;4.718;2023-12-04T03:02:05;7.60;;;4.63;;
18239;SDS011;9244;50.828;4.718;2023-12-04T03:04:30;8.37;;;4.80;;
18239;SDS011;9244;50.828;4.718;2023-12-04T03:06:56;8.07;;;5.00;;
18239;SDS011;9244;50.828;4.718;2023-12-04T03:09:22;7.70;;;4.93;;
18239;SDS011;9244;50.828;4.718;2023-12-04T03:11:51;7.20;;;4.50;;
18239;SDS011;9244;50.828;4.718;2023-12-04T03:14:16;7.37;;;4.63;;
18239;SDS011;9244;50.828;4.718;2023-12-04T03:16:44;6.50;;;4.20;;
18239;SDS011;9244;50.828;4.718;2023-12-04T03:19:10;6.43;;;4.57;;
18239;SDS011;9244;50.828;4.718;2023-12-04T03:21:38;7.20;;;4.77;;
18239;SDS011;9244;50.828;4.718;2023-12-04T03:24:05;7.10;;;4.40;;
18239;SDS011;9244;50.828;4.718;2023-12-04T03:26:31;6.10;;;4.33;;
18239;SDS011;9244;50.828;4.718;2023-12-04T03:28:56;6.57;;;4.10;;
18239;SDS011;9244;50.828;4.718;2023-12-04T03:31:22;5.43;;;3.93;;
18239;SDS011;9244;50.828;4.718;2023-12-04T03:33:50;6.23;;;4.53;;
18239;SDS011;9244;50.828;4.718;2023-12-04T03:36:18;6.27;;;3.60;;
18239;SDS011;9244;50.828;4.718;2023-12-04T03:38:44;6.20;;;4.33;;
18239;SDS011;9244;50.828;4.718;2023-12-04T03:41:17;7.33;;;4.93;;
18239;SDS011;9244;50.828;4.718;2023-12-04T03:43:43;4.27;;;3.00;;
18239;SDS011;9244;50.828;4.718;2023-12-04T03:46:09;6.57;;;4.27;;
18239;SDS011;9244;50.828;4.718;2023-12-04T03:48:34;6.40;;;4.17;;
18239;SDS011;9244;50.828;4.718;2023-12-04T03:51:00;6.17;;;4.20;;
18239;SDS011;9244;50.828;4.718;2023-12-04T03:53:26;5.47;;;4.13;;
18239;SDS011;9244;50.828;4.718;2023-12-04T03:55:52;5.47;;;4.03;;
18239;SDS011;9244;50.828;4.718;2023-12-04T03:58:17;6.83;;;4.13;;
18239;SDS011;9244;50.828;4.718;2023-12-04T04:00:43;5.57;;;3.80;;
18239;SDS011;9244;50.828;4.718;2023-12-04T04:03:09;5.67;;;3.93;;
18239;SDS011;9244;50.828;4.718;2023-12-04T04:05:37;5.13;;;3.67;;
18239;SDS011;9244;50.828;4.718;2023-12-04T04:08:05;5.47;;;3.67;;
18239;SDS011;9244;50.828;4.718;2023-12-04T04:10:32;4.47;;;3.20;;
18239;SDS011;9244;50.828;4.718;2023-12-04T04:12:58;5.77;;;4.17;;
18239;SDS011;9244;50.828;4.718;2023-12-04T04:15:25;4.57;;;3.40;;
18239;SDS011;9244;50.828;4.718;2023-12-04T04:17:53;5.97;;;4.07;;
18239;SDS011;9244;50.828;4.718;2023-12-04T04:20:20;5.60;;;3.80;;
18239;SDS011;9244;50.828;4.718;2023-12-04T04:22:49;5.07;;;3.60;;
18239;SDS011;9244;50.828;4.718;2023-12-04T04:25:15;5.90;;;3.90;;
18239;SDS011;9244;50.828;4.718;2023-12-04T04:27:40;4.50;;;3.10;;
18239;SDS011;9244;50.828;4.718;2023-12-04T04:30:06;5.97;;;3.70;;
18239;SDS011;9244;50.828;4.718;2023-12-04T04:32:33;6.63;;;3.43;;
18239;SDS011;9244;50.828;4.718;2023-12-04T04:34:59;5.77;;;4.20;;
18239;SDS011;9244;50.828;4.718;2023-12-04T04:37:25;5.53;;;3.57;;
18239;SDS011;9244;50.828;4.718;2023-12-04T04:39:52;5.37;;;3.67;;
18239;SDS011;9244;50.828;4.718;2023-12-04T04:42:20;5.57;;;3.77;;
18239;SDS011;9244;50.828;4.718;2023-12-04T04:44:48;3.80;;;2.50;;
18239;SDS011;9244;50.828;4.718;2023-12-04T04:47:14;4.83;;;3.40;;
18239;SDS011;9244;50.828;4.718;2023-12-04T04:49:42;5.93;;;3.87;;
18239;SDS011;9244;50.828;4.718;2023-12-04T04:52:10;5.27;;;3.47;;
18239;SDS011;9244;50.828;4.718;2023-12-04T04:54:35;5.03;;;3.57;;
18239;SDS011;9244;50.828;4.718;2023-12-04T04:57:01;4.93;;;3.70;;
18239;SDS011;9244;50.828;4.718;2023-12-04T04:59:26;7.03;;;4.27;;
18239;SDS011;9244;50.828;4.718;2023-12-04T05:01:55;4.10;;;2.57;;
18239;SDS011;9244;50.828;4.718;2023-12-04T05:04:23;5.07;;;3.00;;
18239;SDS011;9244;50.828;4.718;2023-12-04T05:06:49;4.83;;;3.23;;
18239;SDS011;9244;50.828;4.718;2023-12-04T05:09:17;3.73;;;2.67;;
18239;SDS011;9244;50.828;4.718;2023-12-04T05:11:43;4.90;;;3.03;;
18239;SDS011;9244;50.828;4.718;2023-12-04T05:14:08;4.57;;;3.10;;
18239;SDS011;9244;50.828;4.718;2023-12-04T05:16:34;4.27;;;3.30;;
18239;SDS011;9244;50.828;4.718;2023-12-04T05:19:00;3.77;;;3.00;;
18239;SDS011;9244;50.828;4.718;2023-12-04T05:21:25;4.57;;;3.37;;
18239;SDS011;9244;50.828;4.718;2023-12-04T05:23:53;4.53;;;3.30;;
18239;SDS011;9244;50.828;4.718;2023-12-04T05:26:19;3.53;;;2.10;;
18239;SDS011;9244;50.828;4.718;2023-12-04T05:28:45;3.67;;;2.80;;
18239;SDS011;9244;50.828;4.718;2023-12-04T05:31:11;3.33;;;2.60;;
18239;SDS011;9244;50.828;4.718;2023-12-04T05:33:37;3.50;;;2.60;;
18239;SDS011;9244;50.828;4.718;2023-12-04T05:36:02;4.00;;;3.10;;
18239;SDS011;9244;50.828;4.718;2023-12-04T05:38:28;3.23;;;2.63;;
18239;SDS011;9244;50.828;4.718;2023-12-04T05:40:56;3.30;;;2.63;;
18239;SDS011;9244;50.828;4.718;2023-12-04T05:43:22;4.40;;;2.83;;
18239;SDS011;9244;50.828;4.718;2023-12-04T05:45:52;4.73;;;3.10;;
18239;SDS011;9244;50.828;4.718;2023-12-04T05:48:18;3.97;;;3.10;;
18239;SDS011;9244;50.828;4.718;2023-12-04T05:50:43;5.27;;;3.13;;
18239;SDS011;9244;50.828;4.718;2023-12-04T05:53:09;3.53;;;2.40;;
18239;SDS011;9244;50.828;4.718;2023-12-04T05:55:42;4.87;;;3.50;;
18239;SDS011;9244;50.828;4.718;2023-12-04T05:58:07;4.90;;;3.07;;
18239;SDS011;9244;50.828;4.718;2023-12-04T06:00:33;4.87;;;2.63;;
18239;SDS011;9244;50.828;4.718;2023-12-04T06:03:01;3.77;;;2.73;;
18239;SDS011;9244;50.828;4.718;2023-12-04T06:05:26;4.90;;;3.60;;
18239;SDS011;9244;50.828;4.718;2023-12-04T06:07:54;4.93;;;3.60;;
18239;SDS011;9244;50.828;4.718;2023-12-04T06:10:22;4.63;;;3.87;;
18239;SDS011;9244;50.828;4.718;2023-12-04T06:12:48;4.13;;;3.00;;
18239;SDS011;9244;50.828;4.718;2023-12-04T06:15:13;2.43;;;1.70;;
18239;SDS011;9244;50.828;4.718;2023-12-04T06:17:39;4.90;;;2.77;;
18239;SDS011;9244;50.828;4.718;2023-12-04T06:20:05;3.93;;;2.97;;
18239;SDS011;9244;50.828;4.718;2023-12-04T06:22:31;5.33;;;3.80;;
18239;SDS011;9244;50.828;4.718;2023-12-04T06:24:57;3.47;;;2.87;;
18239;SDS011;9244;50.828;4.718;2023-12-04T06:27:23;4.70;;;3.60;;
18239;SDS011;9244;50.828;4.718;2023-12-04T06:29:51;4.33;;;2.77;;
18239;SDS011;9244;50.828;4.718;2023-12-04T06:32:17;3.77;;;2.57;;
18239;SDS011;9244;50.828;4.718;2023-12-04T06:34:47;3.13;;;2.43;;
18239;SDS011;9244;50.828;4.718;2023-12-04T06:37:16;4.13;;;2.33;;
18239;SDS011;9244;50.828;4.718;2023-12-04T06:39:41;6.40;;;3.17;;
18239;SDS011;9244;50.828;4.718;2023-12-04T06:42:10;5.57;;;3.60;;
18239;SDS011;9244;50.828;4.718;2023-12-04T06:44:37;3.13;;;2.10;;
18239;SDS011;9244;50.828;4.718;2023-12-04T06:47:03;4.30;;;2.63;;
18239;SDS011;9244;50.828;4.718;2023-12-04T06:49:30;3.03;;;2.53;;
18239;SDS011;9244;50.828;4.718;2023-12-04T06:51:57;4.73;;;2.97;;
18239;SDS011;9244;50.828;4.718;2023-12-04T06:54:23;4.63;;;3.50;;
18239;SDS011;9244;50.828;4.718;2023-12-04T06:56:51;8.43;;;3.10;;
18239;SDS011;9244;50.828;4.718;2023-12-04T06:59:22;5.13;;;3.53;;
18239;SDS011;9244;50.828;4.718;2023-12-04T07:01:50;4.90;;;3.47;;
18239;SDS011;9244;50.828;4.718;2023-12-04T07:04:16;2.90;;;1.70;;
18239;SDS011;9244;50.828;4.718;2023-12-04T07:06:46;5.03;;;3.13;;
18239;SDS011;9244;50.828;4.718;2023-12-04T07:09:12;5.97;;;2.77;;
18239;SDS011;9244;50.828;4.718;2023-12-04T07:11:38;5.50;;;4.10;;
18239;SDS011;9244;50.828;4.718;2023-12-04T07:14:06;4.43;;;3.13;;
18239;SDS011;9244;50.828;4.718;2023-12-04T07:16:38;6.47;;;3.50;;
18239;SDS011;9244;50.828;4.718;2023-12-04T07:19:08;5.20;;;4.00;;
18239;SDS011;9244;50.828;4.718;2023-12-04T07:21:34;5.40;;;3.90;;
18239;SDS011;9244;50.828;4.718;2023-12-04T07:24:01;4.03;;;3.30;;
18239;SDS011;9244;50.828;4.718;2023-12-04T07:26:32;5.10;;;3.57;;
18239;SDS011;9244;50.828;4.718;2023-12-04T07:28:59;3.70;;;2.87;;
18239;SDS011;9244;50.828;4.718;2023-12-04T07:31:24;5.63;;;4.27;;
18239;SDS011;9244;50.828;4.718;2023-12-04T07:33:52;5.07;;;3.37;;
18239;SDS011;9244;50.828;4.718;2023-12-04T07:36:18;4.87;;;3.70;;
18239;SDS011;9244;50.828;4.718;2023-12-04T07:38:46;6.77;;;4.03;;
18239;SDS011;9244;50.828;4.718;2023-12-04T07:41:12;5.03;;;3.80;;
18239;SDS011;9244;50.828;4.718;2023-12-04T07:43:40;6.13;;;4.10;;
18239;SDS011;9244;50.828;4.718;2023-12-04T07:46:06;4.57;;;3.67;;
18239;SDS011;9244;50.828;4.718;2023-12-04T07:48:33;5.07;;;4.13;;
18239;SDS011;9244;50.828;4.718;2023-12-04T07:50:59;5.07;;;4.00;;
18239;SDS011;9244;50.828;4.718;2023-12-04T07:53:27;4.67;;;3.23;;
18239;SDS011;9244;50.828;4.718;2023-12-04T07:55:53;6.00;;;3.97;;
18239;SDS011;9244;50.828;4.718;2023-12-04T07:58:21;3.87;;;2.67;;
18239;SDS011;9244;50.828;4.718;2023-12-04T08:00:49;6.83;;;3.90;;
18239;SDS011;9244;50.828;4.718;2023-12-04T08:03:17;5.03;;;3.30;;
18239;SDS011;9244;50.828;4.718;2023-12-04T08:05:42;3.80;;;2.67;;
18239;SDS011;9244;50.828;4.718;2023-12-04T08:08:08;5.10;;;3.63;;
18239;SDS011;9244;50.828;4.718;2023-12-04T08:10:36;4.17;;;2.83;;
18239;SDS011;9244;50.828;4.718;2023-12-04T08:13:04;4.80;;;3.50;;
18239;SDS011;9244;50.828;4.718;2023-12-04T08:15:34;4.23;;;3.17;;
18239;SDS011;9244;50.828;4.718;2023-12-04T08:18:00;6.53;;;3.40;;
18239;SDS011;9244;50.828;4.718;2023-12-04T08:20:28;3.90;;;2.67;;
18239;SDS011;9244;50.828;4.718;2023-12-04T08:22:53;4.73;;;3.20;;
18239;SDS011;9244;50.828;4.718;2023-12-04T08:25:21;5.13;;;2.97;;
18239;SDS011;9244;50.828;4.718;2023-12-04T08:27:47;4.03;;;2.83;;
18239;SDS011;9244;50.828;4.718;2023-12-04T08:30:14;2.73;;;2.37;;
18239;SDS011;9244;50.828;4.718;2023-12-04T08:32:40;7.00;;;3.83;;
18239;SDS011;9244;50.828;4.718;2023-12-04T08:35:06;4.87;;;4.03;;
18239;SDS011;9244;50.828;4.718;2023-12-04T08:37:34;4.10;;;3.53;;
18239;SDS011;9244;50.828;4.718;2023-12-04T08:40:00;5.00;;;3.50;;
18239;SDS011;9244;50.828;4.718;2023-12-04T08:42:26;2.60;;;1.80;;
18239;SDS011;9244;50.828;4.718;2023-12-04T08:44:54;6.93;;;3.67;;
18239;SDS011;9244;50.828;4.718;2023-12-04T08:47:20;4.60;;;2.97;;
18239;SDS011;9244;50.828;4.718;2023-12-04T08:49:47;5.03;;;3.77;;
18239;SDS011;9244;50.828;4.718;2023-12-04T08:52:15;4.37;;;3.80;;
18239;SDS011;9244;50.828;4.718;2023-12-04T08:54:41;5.17;;;3.50;;
18239;SDS011;9244;50.828;4.718;2023-12-04T08:57:09;6.50;;;3.57;;
18239;SDS011;9244;50.828;4.718;2023-12-04T08:59:35;4.90;;;3.50;;
18239;SDS011;9244;50.828;4.718;2023-12-04T09:02:00;6.03;;;4.00;;
18239;SDS011;9244;50.828;4.718;2023-12-04T09:04:32;6.87;;;3.63;;
18239;SDS011;9244;50.828;4.718;2023-12-04T09:07:00;6.43;;;3.70;;
18239;SDS011;9244;50.828;4.718;2023-12-04T09:09:28;5.00;;;4.13;;
18239;SDS011;9244;50.828;4.718;2023-12-04T09:12:02;4.67;;;3.73;;
18239;SDS011;9244;50.828;4.718;2023-12-04T09:14:27;5.23;;;4.40;;
18239;SDS011;9244;50.828;4.718;2023-12-04T09:16:53;5.67;;;4.53;;
18239;SDS011;9244;50.828;4.718;2023-12-04T09:19:19;5.47;;;3.90;;
18239;SDS011;9244;50.828;4.718;2023-12-04T09:21:47;4.90;;;4.20;;
18239;SDS011;9244;50.828;4.718;2023-12-04T09:24:15;6.23;;;4.77;;
18239;SDS011;9244;50.828;4.718;2023-12-04T09:26:43;5.27;;;3.70;;
18239;SDS011;9244;50.828;4.718;2023-12-04T09:29:10;5.63;;;3.77;;
18239;SDS011;9244;50.828;4.718;2023-12-04T09:31:37;6.57;;;5.07;;
18239;SDS011;9244;50.828;4.718;2023-12-04T09:34:03;5.90;;;4.40;;
18239;SDS011;9244;50.828;4.718;2023-12-04T09:36:28;6.40;;;4.80;;
18239;SDS011;9244;50.828;4.718;2023-12-04T09:38:57;5.30;;;4.07;;
18239;SDS011;9244;50.828;4.718;2023-12-04T09:41:25;6.17;;;4.67;;
18239;SDS011;9244;50.828;4.718;2023-12-04T09:43:51;4.33;;;3.37;;
18239;SDS011;9244;50.828;4.718;2023-12-04T09:46:18;5.97;;;4.97;;
18239;SDS011;9244;50.828;4.718;2023-12-04T09:48:44;7.33;;;4.07;;
18239;SDS011;9244;50.828;4.718;2023-12-04T09:51:12;5.57;;;4.30;;
18239;SDS011;9244;50.828;4.718;2023-12-04T09:53:39;7.03;;;4.93;;
18239;SDS011;9244;50.828;4.718;2023-12-04T09:56:09;7.03;;;5.17;;
18239;SDS011;9244;50.828;4.718;2023-12-04T09:58:35;7.87;;;5.30;;
18239;SDS011;9244;50.828;4.718;2023-12-04T10:01:07;10.70;;;3.37;;
18239;SDS011;9244;50.828;4.718;2023-12-04T10:03:33;6.50;;;5.00;;
18239;SDS011;9244;50.828;4.718;2023-12-04T10:06:04;7.57;;;5.33;;
18239;SDS011;9244;50.828;4.718;2023-12-04T10:08:30;9.00;;;5.20;;
18239;SDS011;9244;50.828;4.718;2023-12-04T10:10:58;6.57;;;5.07;;
18239;SDS011;9244;50.828;4.718;2023-12-04T10:13:27;7.60;;;5.60;;
18239;SDS011;9244;50.828;4.718;2023-12-04T10:15:53;8.47;;;5.90;;
18239;SDS011;9244;50.828;4.718;2023-12-04T10:18:27;7.37;;;4.93;;
18239;SDS011;9244;50.828;4.718;2023-12-04T10:20:56;7.33;;;4.73;;
18239;SDS011;9244;50.828;4.718;2023-12-04T10:23:43;7.60;;;5.30;;
18239;SDS011;9244;50.828;4.718;2023-12-04T10:26:14;7.23;;;5.20;;
18239;SDS011;9244;50.828;4.718;2023-12-04T10:28:59;7.77;;;5.60;;
18239;SDS011;9244;50.828;4.718;2023-12-04T10:31:32;8.03;;;5.53;;
18239;SDS011;9244;50.828;4.718;2023-12-04T10:33:59;9.27;;;6.03;;
18239;SDS011;9244;50.828;4.718;2023-12-04T10:36:24;5.97;;;5.00;;
18239;SDS011;9244;50.828;4.718;2023-12-04T10:38:59;9.23;;;5.80;;
18239;SDS011;9244;50.828;4.718;2023-12-04T10:41:25;10.13;;;6.80;;
18239;SDS011;9244;50.828;4.718;2023-12-04T10:43:51;8.20;;;4.97;;
18239;SDS011;9244;50.828;4.718;2023-12-04T10:46:20;10.70;;;6.93;;
18239;SDS011;9244;50.828;4.718;2023-12-04T10:48:46;9.83;;;6.37;;
18239;SDS011;9244;50.828;4.718;2023-12-04T10:51:12;10.53;;;7.20;;
18239;SDS011;9244;50.828;4.718;2023-12-04T10:53:40;9.27;;;6.67;;
18239;SDS011;9244;50.828;4.718;2023-12-04T10:56:09;11.33;;;7.93;;
18239;SDS011;9244;50.828;4.718;2023-12-04T10:58:40;9.30;;;6.87;;
18239;SDS011;9244;50.828;4.718;2023-12-04T11:01:08;9.70;;;7.03;;
18239;SDS011;9244;50.828;4.718;2023-12-04T11:03:47;12.63;;;10.07;;
18239;SDS011;9244;50.828;4.718;2023-12-04T11:06:16;8.87;;;6.00;;
18239;SDS011;9244;50.828;4.718;2023-12-04T11:08:47;12.53;;;9.67;;
18239;SDS011;9244;50.828;4.718;2023-12-04T11:11:18;12.07;;;9.00;;
18239;SDS011;9244;50.828;4.718;2023-12-04T11:13:50;12.50;;;9.40;;
18239;SDS011;9244;50.828;4.718;2023-12-04T11:21:58;12.00;;;8.07;;
18239;SDS011;9244;50.828;4.718;2023-12-04T11:24:26;11.97;;;7.33;;
18239;SDS011;9244;50.828;4.718;2023-12-04T11:26:54;14.23;;;8.23;;
18239;SDS011;9244;50.828;4.718;2023-12-04T11:29:21;10.57;;;8.27;;
18239;SDS011;9244;50.828;4.718;2023-12-04T11:31:51;10.87;;;6.60;;
18239;SDS011;9244;50.828;4.718;2023-12-04T11:34:16;10.73;;;6.93;;
18239;SDS011;9244;50.828;4.718;2023-12-04T11:36:44;12.23;;;8.63;;
18239;SDS011;9244;50.828;4.718;2023-12-04T11:39:10;12.93;;;8.60;;
18239;SDS011;9244;50.828;4.718;2023-12-04T11:41:38;13.10;;;9.10;;
18239;SDS011;9244;50.828;4.718;2023-12-04T11:44:09;10.00;;;6.77;;
18239;SDS011;9244;50.828;4.718;2023-12-04T11:46:39;12.17;;;8.90;;
18239;SDS011;9244;50.828;4.718;2023-12-04T11:51:51;9.33;;;6.97;;
18239;SDS011;9244;50.828;4.718;2023-12-04T11:54:17;10.33;;;7.47;;
18239;SDS011;9244;50.828;4.718;2023-12-04T11:56:59;11.83;;;8.90;;
18239;SDS011;9244;50.828;4.718;2023-12-04T11:59:37;12.03;;;8.67;;
18239;SDS011;9244;50.828;4.718;2023-12-04T12:02:03;13.57;;;8.97;;
18239;SDS011;9244;50.828;4.718;2023-12-04T12:04:33;15.10;;;10.43;;
18239;SDS011;9244;50.828;4.718;2023-12-04T12:07:01;14.20;;;9.90;;
18239;SDS011;9244;50.828;4.718;2023-12-04T12:09:29;12.97;;;9.33;;
18239;SDS011;9244;50.828;4.718;2023-12-04T12:11:58;7.10;;;5.13;;
18239;SDS011;9244;50.828;4.718;2023-12-04T12:14:28;10.50;;;7.00;;
18239;SDS011;9244;50.828;4.718;2023-12-04T12:16:55;12.27;;;8.80;;
18239;SDS011;9244;50.828;4.718;2023-12-04T12:19:23;11.93;;;8.57;;
18239;SDS011;9244;50.828;4.718;2023-12-04T12:21:49;11.87;;;8.73;;
18239;SDS011;9244;50.828;4.718;2023-12-04T12:24:16;8.13;;;6.63;;
18239;SDS011;9244;50.828;4.718;2023-12-04T12:26:43;12.00;;;8.93;;
18239;SDS011;9244;50.828;4.718;2023-12-04T12:29:11;9.57;;;6.80;;
18239;SDS011;9244;50.828;4.718;2023-12-04T12:31:37;11.73;;;7.80;;
18239;SDS011;9244;50.828;4.718;2023-12-04T12:34:03;9.40;;;7.23;;
18239;SDS011;9244;50.828;4.718;2023-12-04T12:36:29;8.70;;;7.03;;
18239;SDS011;9244;50.828;4.718;2023-12-04T12:38:57;8.03;;;5.73;;
18239;SDS011;9244;50.828;4.718;2023-12-04T12:41:25;4.60;;;3.60;;
18239;SDS011;9244;50.828;4.718;2023-12-04T12:43:51;8.70;;;6.40;;
18239;SDS011;9244;50.828;4.718;2023-12-04T12:46:18;8.50;;;6.50;;
18239;SDS011;9244;50.828;4.718;2023-12-04T12:48:44;6.77;;;5.63;;
18239;SDS011;9244;50.828;4.718;2023-12-04T12:51:12;9.30;;;6.77;;
18239;SDS011;9244;50.828;4.718;2023-12-04T12:53:38;9.60;;;7.23;;
18239;SDS011;9244;50.828;4.718;2023-12-04T12:56:04;11.80;;;6.00;;
18239;SDS011;9244;50.828;4.718;2023-12-04T12:58:31;6.90;;;5.60;;
18239;SDS011;9244;50.828;4.718;2023-12-04T13:01:02;7.90;;;5.93;;
18239;SDS011;9244;50.828;4.718;2023-12-04T13:03:28;9.00;;;7.00;;
18239;SDS011;9244;50.828;4.718;2023-12-04T13:05:55;5.73;;;4.83;;
18239;SDS011;9244;50.828;4.718;2023-12-04T13:08:20;7.23;;;5.20;;
18239;SDS011;9244;50.828;4.718;2023-12-04T13:10:46;5.20;;;4.27;;
18239;SDS011;9244;50.828;4.718;2023-12-04T13:13:14;4.73;;;3.97;;
18239;SDS011;9244;50.828;4.718;2023-12-04T13:15:41;5.33;;;4.10;;
18239;SDS011;9244;50.828;4.718;2023-12-04T13:18:07;4.73;;;3.97;;
18239;SDS011;9244;50.828;4.718;2023-12-04T13:20:36;4.97;;;4.47;;
18239;SDS011;9244;50.828;4.718;2023-12-04T13:23:04;4.37;;;3.97;;
18239;SDS011;9244;50.828;4.718;2023-12-04T13:25:30;7.33;;;5.70;;
18239;SDS011;9244;50.828;4.718;2023-12-04T13:27:58;8.43;;;6.37;;
18239;SDS011;9244;50.828;4.718;2023-12-04T13:30:26;6.67;;;5.40;;
18239;SDS011;9244;50.828;4.718;2023-12-04T13:32:52;4.40;;;4.00;;
18239;SDS011;9244;50.828;4.718;2023-12-04T13:35:17;7.97;;;5.77;;
18239;SDS011;9244;50.828;4.718;2023-12-04T13:37:43;5.23;;;4.33;;
18239;SDS011;9244;50.828;4.718;2023-12-04T13:40:11;5.73;;;4.67;;
18239;SDS011;9244;50.828;4.718;2023-12-04T13:42:41;5.63;;;4.27;;
18239;SDS011;9244;50.828;4.718;2023-12-04T13:45:26;10.50;;;6.80;;
18239;SDS011;9244;50.828;4.718;2023-12-04T13:47:54;13.60;;;8.73;;
18239;SDS011;9244;50.828;4.718;2023-12-04T13:50:19;6.60;;;5.90;;
18239;SDS011;9244;50.828;4.718;2023-12-04T13:52:45;14.67;;;8.77;;
18239;SDS011;9244;50.828;4.718;2023-12-04T13:55:20;14.97;;;8.53;;
18239;SDS011;9244;50.828;4.718;2023-12-04T13:57:56;16.83;;;7.67;;
18239;SDS011;9244;50.828;4.718;2023-12-04T14:00:21;7.23;;;5.07;;
18239;SDS011;9244;50.828;4.718;2023-12-04T14:02:52;4.40;;;3.90;;
18239;SDS011;9244;50.828;4.718;2023-12-04T14:05:19;4.83;;;4.10;;
18239;SDS011;9244;50.828;4.718;2023-12-04T14:07:46;5.23;;;4.73;;
18239;SDS011;9244;50.828;4.718;2023-12-04T14:10:14;4.87;;;4.37;;
18239;SDS011;9244;50.828;4.718;2023-12-04T14:12:40;6.43;;;4.83;;
18239;SDS011;9244;50.828;4.718;2023-12-04T14:15:06;6.60;;;5.43;;
18239;SDS011;9244;50.828;4.718;2023-12-04T14:17:36;7.63;;;5.27;;
18239;SDS011;9244;50.828;4.718;2023-12-04T14:20:06;7.93;;;6.97;;
18239;SDS011;9244;50.828;4.718;2023-12-04T14:22:41;7.50;;;6.67;;
18239;SDS011;9244;50.828;4.718;2023-12-04T14:25:08;11.10;;;8.23;;
18239;SDS011;9244;50.828;4.718;2023-12-04T14:27:36;7.33;;;6.27;;
18239;SDS011;9244;50.828;4.718;2023-12-04T14:30:05;6.27;;;4.10;;
18239;SDS011;9244;50.828;4.718;2023-12-04T14:32:35;6.90;;;5.03;;
18239;SDS011;9244;50.828;4.718;2023-12-04T14:35:01;5.77;;;5.13;;
18239;SDS011;9244;50.828;4.718;2023-12-04T14:37:28;9.03;;;6.40;;
18239;SDS011;9244;50.828;4.718;2023-12-04T14:39:53;6.83;;;5.90;;
18239;SDS011;9244;50.828;4.718;2023-12-04T14:42:19;6.30;;;5.60;;
18239;SDS011;9244;50.828;4.718;2023-12-04T14:44:45;7.93;;;5.67;;
18239;SDS011;9244;50.828;4.718;2023-12-04T14:47:10;8.63;;;5.53;;
18239;SDS011;9244;50.828;4.718;2023-12-04T14:49:40;6.00;;;5.40;;
18239;SDS011;9244;50.828;4.718;2023-12-04T14:52:06;7.33;;;6.50;;
18239;SDS011;9244;50.828;4.718;2023-12-04T14:54:32;5.93;;;5.30;;
18239;SDS011;9244;50.828;4.718;2023-12-04T14:57:13;8.17;;;6.00;;
18239;SDS011;9244;50.828;4.718;2023-12-04T14:59:44;5.90;;;5.10;;
18239;SDS011;9244;50.828;4.718;2023-12-04T15:02:29;6.63;;;6.03;;
18239;SDS011;9244;50.828;4.718;2023-12-04T15:05:06;7.73;;;6.20;;
18239;SDS011;9244;50.828;4.718;2023-12-04T15:07:51;9.23;;;5.90;;
18239;SDS011;9244;50.828;4.718;2023-12-04T15:10:51;8.80;;;6.20;;